Time;durP1;ratioP1;P1;durP2;ratioP2;P2;SDS_P1;SDS_P2;PMS_P1;PMS_P2;Temp;Humidity;BMP_temperature;BMP_pressure;BME280_temperature;BME280_humidity;BME280_pressure;Samples;Min_cycle;Max_cycle;Signal;HPM_P1;HPM_P2
2021/03/07 00:01:15;;;;;;;14.40;13.00;;;4.40;83.40;;;;;;5095059;28;20178;-68
2021/03/07 00:03:41;;;;;;;15.43;13.80;;;4.40;83.70;;;;;;5095214;28;20164;-68
2021/03/07 00:06:07;;;;;;;14.90;13.40;;;4.40;83.70;;;;;;5095061;28;20182;-68
2021/03/07 00:08:37;;;;;;;17.65;14.05;;;4.30;83.60;;;;;;5094319;28;20169;-68
2021/03/07 00:11:03;;;;;;;17.15;13.35;;;4.30;83.50;;;;;;5095201;28;20178;-68
2021/03/07 00:13:29;;;;;;;16.45;14.75;;;4.30;83.60;;;;;;5088845;28;20183;-68
2021/03/07 00:15:55;;;;;;;19.37;14.87;;;4.30;84.00;;;;;;5074559;28;20635;-68
2021/03/07 00:18:20;;;;;;;21.00;14.20;;;4.20;84.50;;;;;;5083943;28;20175;-68
2021/03/07 00:20:46;;;;;;;15.03;13.50;;;4.20;84.20;;;;;;5074449;28;20407;-68
2021/03/07 00:23:12;;;;;;;15.40;13.77;;;4.20;84.20;;;;;;5073523;28;20438;-68
2021/03/07 00:25:38;;;;;;;15.32;13.82;;;4.20;84.40;;;;;;5072858;28;20594;-68
2021/03/07 00:28:04;;;;;;;20.33;15.53;;;4.20;84.80;;;;;;5074248;28;20246;-68
2021/03/07 00:30:30;;;;;;;15.73;13.77;;;4.20;85.30;;;;;;5055616;28;20262;-68
2021/03/07 00:32:56;;;;;;;16.67;14.52;;;4.10;85.20;;;;;;5074282;28;20693;-68
2021/03/07 00:35:21;;;;;;;16.10;14.37;;;4.20;85.30;;;;;;5073462;28;20203;-68
2021/03/07 00:37:47;;;;;;;17.57;14.40;;;4.10;85.00;;;;;;5074159;28;20226;-68
2021/03/07 00:40:13;;;;;;;19.93;14.37;;;4.10;85.90;;;;;;5074372;28;20612;-68
2021/03/07 00:42:47;;;;;;;15.93;14.23;;;4.10;85.30;;;;;;5073504;28;20176;-68
2021/03/07 00:45:17;;;;;;;15.65;13.90;;;4.10;85.40;;;;;;5093256;28;20404;-68
2021/03/07 00:47:44;;;;;;;17.67;15.60;;;4.00;85.20;;;;;;5094052;28;20183;-68
2021/03/07 00:50:13;;;;;;;19.70;15.00;;;4.00;86.00;;;;;;5094290;28;20171;-68
2021/03/07 00:52:39;;;;;;;22.17;14.90;;;3.90;85.30;;;;;;5093249;28;20415;-68
2021/03/07 00:55:05;;;;;;;17.92;14.35;;;3.90;85.30;;;;;;5093617;28;20164;-68
2021/03/07 00:57:31;;;;;;;15.32;13.73;;;3.90;85.60;;;;;;5093525;28;20195;-68
2021/03/07 00:59:57;;;;;;;16.83;14.57;;;3.90;85.90;;;;;;5094097;28;20167;-68
2021/03/07 01:02:24;;;;;;;16.43;14.00;;;3.90;85.40;;;;;;5093456;28;20179;-68
2021/03/07 01:04:50;;;;;;;19.33;13.80;;;3.90;85.10;;;;;;5075828;28;20659;-68
2021/03/07 01:07:16;;;;;;;18.20;14.50;;;3.90;85.10;;;;;;5093782;28;20268;-68
2021/03/07 01:09:41;;;;;;;18.97;13.73;;;3.90;85.50;;;;;;5093712;28;20617;-68
2021/03/07 01:12:07;;;;;;;15.50;14.00;;;3.90;85.90;;;;;;5083917;28;20236;-68
2021/03/07 01:14:33;;;;;;;15.67;13.57;;;3.80;85.90;;;;;;5068389;28;20575;-68
2021/03/07 01:16:59;;;;;;;16.20;13.80;;;3.80;85.50;;;;;;5093814;28;20206;-68
2021/03/07 01:19:32;;;;;;;19.57;13.50;;;3.80;85.30;;;;;;5093023;28;20194;-68
2021/03/07 01:21:58;;;;;;;14.63;11.95;;;3.80;85.50;;;;;;5093600;28;20243;-68
2021/03/07 01:24:23;;;;;;;14.83;13.00;;;3.80;86.00;;;;;;5092952;28;20253;-68
2021/03/07 01:26:50;;;;;;;18.50;14.48;;;3.90;86.30;;;;;;5093072;28;20712;-68
2021/03/07 01:29:16;;;;;;;15.60;13.50;;;3.90;86.30;;;;;;5092564;28;20176;-68
2021/03/07 01:31:42;;;;;;;14.10;12.63;;;3.90;86.20;;;;;;5092848;28;20619;-68
2021/03/07 01:34:07;;;;;;;15.03;13.37;;;3.90;85.50;;;;;;5093483;28;20179;-68
2021/03/07 01:36:33;;;;;;;15.93;13.83;;;3.80;85.50;;;;;;5092451;28;20821;-68
2021/03/07 01:38:59;;;;;;;15.50;13.00;;;3.80;85.90;;;;;;5093510;28;20254;-68
2021/03/07 01:41:25;;;;;;;13.90;12.47;;;3.80;86.00;;;;;;5092562;28;20191;-68
2021/03/07 01:43:52;;;;;;;14.55;11.75;;;3.80;85.40;;;;;;5093201;28;20178;-68
2021/03/07 01:46:18;;;;;;;16.48;13.15;;;3.80;85.40;;;;;;5075179;28;20171;-68
2021/03/07 01:48:44;;;;;;;15.20;12.87;;;3.80;85.90;;;;;;5093027;28;20209;-68
2021/03/07 01:51:11;;;;;;;13.30;12.00;;;3.70;86.50;;;;;;5093945;28;20495;-68
2021/03/07 01:53:36;;;;;;;14.13;11.82;;;3.70;86.70;;;;;;5093344;28;20214;-68
2021/03/07 01:56:05;;;;;;;12.90;11.53;;;3.70;86.40;;;;;;5093179;28;20215;-68
2021/03/07 01:58:37;;;;;;;13.02;11.15;;;3.70;86.00;;;;;;5092875;28;20262;-68
2021/03/07 02:01:04;;;;;;;14.82;12.63;;;3.70;86.30;;;;;;5093118;28;20199;-68
2021/03/07 02:03:30;;;;;;;14.48;11.23;;;3.60;86.00;;;;;;5092180;28;20620;-68
2021/03/07 02:05:56;;;;;;;12.25;10.95;;;3.70;86.50;;;;;;5093286;28;20180;-68
2021/03/07 02:08:23;;;;;;;12.05;10.95;;;3.70;86.90;;;;;;5092640;28;20226;-68
2021/03/07 02:10:53;;;;;;;14.02;11.23;;;3.70;86.40;;;;;;5093010;28;20171;-68
2021/03/07 02:13:30;;;;;;;13.65;12.25;;;3.70;86.00;;;;;;5092397;28;20173;-68
2021/03/07 02:15:59;;;;;;;13.45;11.80;;;3.70;86.00;;;;;;5089788;28;20183;-68
2021/03/07 02:18:25;;;;;;;13.20;11.70;;;3.70;85.80;;;;;;5079692;28;20179;-68
2021/03/07 02:20:58;;;;;;;15.60;12.30;;;3.70;85.60;;;;;;5074631;28;20667;-68
2021/03/07 02:23:26;;;;;;;12.98;11.45;;;3.70;85.60;;;;;;5091444;28;20164;-68
2021/03/07 02:25:53;;;;;;;13.48;11.30;;;3.70;86.00;;;;;;5083002;28;20183;-68
2021/03/07 02:28:21;;;;;;;14.30;12.30;;;3.60;86.40;;;;;;5081886;28;20570;-68
2021/03/07 02:30:47;;;;;;;11.73;10.52;;;3.60;86.30;;;;;;5077311;28;20178;-68
2021/03/07 02:33:31;;;;;;;15.13;11.53;;;3.70;86.10;;;;;;5077123;28;20537;-68
2021/03/07 02:36:12;;;;;;;13.35;11.00;;;3.60;86.00;;;;;;5081147;28;20323;-68
2021/03/07 02:38:39;;;;;;;11.77;10.30;;;3.60;86.10;;;;;;5080937;28;20657;-68
2021/03/07 02:41:08;;;;;;;14.18;12.02;;;3.60;86.20;;;;;;5085762;28;20214;-68
2021/03/07 02:43:39;;;;;;;12.63;11.00;;;3.50;86.10;;;;;;5095451;28;20177;-68
2021/03/07 02:46:08;;;;;;;12.05;10.63;;;3.50;86.50;;;;;;5098939;28;20186;-68
2021/03/07 02:48:35;;;;;;;12.25;11.05;;;3.50;87.40;;;;;;5098774;28;20583;-68
2021/03/07 02:51:03;;;;;;;14.65;11.32;;;3.40;88.00;;;;;;5099231;28;20182;-68
2021/03/07 02:53:31;;;;;;;14.18;11.70;;;3.50;88.00;;;;;;5080348;28;20174;-68
2021/03/07 02:56:04;;;;;;;14.70;10.98;;;3.50;87.20;;;;;;5099216;28;20213;-68
2021/03/07 02:58:32;;;;;;;16.05;12.18;;;3.50;87.10;;;;;;5098756;28;20167;-68
2021/03/07 03:01:01;;;;;;;13.32;11.98;;;3.50;86.90;;;;;;5099465;28;20295;-68
2021/03/07 03:03:30;;;;;;;13.60;12.20;;;3.50;86.80;;;;;;5098158;28;20170;-70
2021/03/07 03:05:58;;;;;;;14.05;12.18;;;3.50;86.40;;;;;;5099082;28;20174;-68
2021/03/07 03:08:24;;;;;;;14.18;12.70;;;3.50;86.40;;;;;;5098883;28;20186;-68
2021/03/07 03:10:51;;;;;;;14.50;11.98;;;3.50;85.90;;;;;;5099144;28;20215;-68
2021/03/07 03:13:19;;;;;;;13.02;11.73;;;3.50;85.90;;;;;;5098887;28;20175;-68
2021/03/07 03:15:46;;;;;;;12.82;11.68;;;3.50;86.10;;;;;;5098437;28;20202;-68
2021/03/07 03:18:14;;;;;;;15.07;11.95;;;3.40;85.60;;;;;;5099047;28;20166;-68
2021/03/07 03:20:41;;;;;;;12.98;11.27;;;3.40;85.40;;;;;;5098464;28;20179;-68
2021/03/07 03:23:07;;;;;;;13.60;12.15;;;3.40;85.20;;;;;;5098936;28;20196;-68
2021/03/07 03:25:33;;;;;;;13.60;11.80;;;3.30;85.40;;;;;;5098558;28;20227;-68
2021/03/07 03:27:59;;;;;;;13.30;11.60;;;3.30;85.80;;;;;;5099091;28;20423;-68
2021/03/07 03:30:26;;;;;;;11.53;10.23;;;3.30;85.70;;;;;;5098489;28;20171;-68
2021/03/07 03:32:52;;;;;;;12.35;11.05;;;3.30;85.20;;;;;;5098986;28;20892;-68
2021/03/07 03:35:19;;;;;;;15.65;11.27;;;3.20;85.00;;;;;;5098784;28;20198;-68
2021/03/07 03:37:47;;;;;;;14.35;11.20;;;3.10;85.60;;;;;;5098173;28;20364;-68
2021/03/07 03:40:17;;;;;;;11.68;10.48;;;3.10;85.80;;;;;;5098822;28;20213;-68
2021/03/07 03:42:44;;;;;;;12.27;11.07;;;3.10;86.10;;;;;;5098271;28;20225;-68
2021/03/07 03:45:11;;;;;;;11.15;9.90;;;3.20;86.10;;;;;;5098558;28;20190;-68
2021/03/07 03:47:39;;;;;;;11.88;10.68;;;3.10;85.90;;;;;;5098398;28;20170;-68
2021/03/07 03:50:06;;;;;;;12.32;10.75;;;3.10;86.00;;;;;;5099045;28;20573;-68
2021/03/07 03:52:36;;;;;;;12.90;10.95;;;3.10;86.20;;;;;;5094347;28;20175;-69
2021/03/07 03:55:26;;;;;;;12.23;10.90;;;3.10;86.20;;;;;;5095170;28;20168;-68
2021/03/07 03:57:56;;;;;;;15.60;10.85;;;3.10;86.20;;;;;;5095626;28;20261;-68
2021/03/07 04:00:25;;;;;;;11.25;10.07;;;3.00;85.90;;;;;;5077128;28;20548;-68
2021/03/07 04:02:54;;;;;;;13.38;10.70;;;3.00;86.30;;;;;;5095364;28;20235;-68
2021/03/07 04:05:23;;;;;;;12.75;11.38;;;3.00;86.40;;;;;;5095238;28;20178;-68
2021/03/07 04:07:50;;;;;;;11.32;10.13;;;3.00;86.40;;;;;;5094382;28;20632;-68
2021/03/07 04:10:17;;;;;;;13.85;11.32;;;3.00;86.90;;;;;;5095231;28;20536;-68
2021/03/07 04:12:48;;;;;;;11.70;10.60;;;3.00;87.00;;;;;;5094507;28;20177;-68
2021/03/07 04:15:17;;;;;;;12.52;10.60;;;3.00;87.10;;;;;;5094323;28;20187;-68
2021/03/07 04:17:43;;;;;;;11.25;10.15;;;3.00;86.70;;;;;;5094447;28;20626;-68
2021/03/07 04:20:10;;;;;;;15.55;11.55;;;3.00;86.60;;;;;;5095049;28;20548;-68
2021/03/07 04:22:36;;;;;;;13.30;10.38;;;3.00;86.90;;;;;;5094387;28;20165;-68
2021/03/07 04:25:03;;;;;;;12.15;10.60;;;2.90;86.50;;;;;;5095081;28;20167;-68
2021/03/07 04:27:30;;;;;;;12.13;10.80;;;2.90;86.60;;;;;;5094311;28;20237;-68
2021/03/07 04:29:56;;;;;;;14.02;10.60;;;2.90;86.70;;;;;;5094896;28;20248;-68
2021/03/07 04:32:22;;;;;;;12.10;10.87;;;3.00;87.00;;;;;;5094553;28;20653;-69
2021/03/07 04:34:48;;;;;;;11.45;10.25;;;2.90;86.70;;;;;;5094480;28;20412;-68
2021/03/07 04:37:14;;;;;;;13.60;11.40;;;2.90;86.70;;;;;;5076054;28;20300;-69
2021/03/07 04:39:40;;;;;;;10.90;9.85;;;2.90;86.70;;;;;;5094098;28;20498;-69
2021/03/07 04:42:06;;;;;;;13.07;11.70;;;2.90;86.60;;;;;;5094699;28;20261;-69
2021/03/07 04:44:33;;;;;;;13.68;11.43;;;2.90;86.80;;;;;;5075786;28;20421;-69
2021/03/07 04:46:59;;;;;;;11.32;10.20;;;2.90;86.50;;;;;;5094516;28;20174;-69
2021/03/07 04:49:24;;;;;;;13.93;10.45;;;2.90;86.80;;;;;;5094449;28;20175;-69
2021/03/07 04:51:51;;;;;;;14.70;12.00;;;2.90;87.00;;;;;;5093855;28;20272;-68
2021/03/07 04:54:17;;;;;;;12.77;11.43;;;2.90;87.30;;;;;;5094258;28;20674;-68
2021/03/07 04:56:43;;;;;;;12.27;10.50;;;2.90;87.40;;;;;;5093666;28;20717;-70
2021/03/07 04:59:09;;;;;;;12.80;11.00;;;2.90;87.70;;;;;;5094275;28;20521;-68
2021/03/07 05:01:36;;;;;;;11.02;9.93;;;2.90;86.90;;;;;;5093649;28;20176;-68
2021/03/07 05:04:05;;;;;;;15.05;11.45;;;2.80;86.50;;;;;;5094124;28;20174;-68
2021/03/07 05:06:37;;;;;;;12.73;11.32;;;2.80;86.50;;;;;;5075822;28;20184;-68
2021/03/07 05:09:03;;;;;;;11.45;10.20;;;2.80;86.50;;;;;;5094149;28;20190;-68
2021/03/07 05:11:29;;;;;;;11.82;10.63;;;2.80;86.80;;;;;;5089405;28;20175;-68
2021/03/07 05:13:55;;;;;;;12.40;10.80;;;2.80;86.30;;;;;;5082112;28;20231;-68
2021/03/07 05:16:20;;;;;;;11.53;10.47;;;2.80;86.40;;;;;;5093643;28;20197;-68
2021/03/07 05:18:46;;;;;;;13.00;11.60;;;2.80;87.70;;;;;;5093339;28;20171;-68
2021/03/07 05:21:12;;;;;;;12.13;10.30;;;2.70;86.90;;;;;;5093795;28;20518;-68
2021/03/07 05:23:38;;;;;;;14.57;11.03;;;2.70;86.30;;;;;;5093159;28;20408;-68
2021/03/07 05:26:04;;;;;;;11.00;9.90;;;2.70;85.90;;;;;;5093785;28;20528;-68
2021/03/07 05:28:30;;;;;;;11.55;10.45;;;2.70;85.90;;;;;;5093034;28;20409;-68
2021/03/07 05:30:56;;;;;;;10.87;9.73;;;2.60;85.90;;;;;;5093691;28;20174;-68
2021/03/07 05:33:21;;;;;;;9.60;8.70;;;2.60;85.90;;;;;;5093304;28;20183;-68
2021/03/07 05:35:48;;;;;;;10.23;9.23;;;2.60;85.70;;;;;;5092564;28;20198;-68
2021/03/07 05:38:14;;;;;;;13.38;9.52;;;2.60;86.20;;;;;;5093087;28;20224;-68
2021/03/07 05:40:40;;;;;;;10.90;9.67;;;2.60;86.40;;;;;;5092857;28;20167;-68
2021/03/07 05:43:07;;;;;;;11.18;9.30;;;2.60;86.10;;;;;;5093130;28;20468;-68
2021/03/07 05:45:33;;;;;;;10.57;9.23;;;2.60;86.30;;;;;;5092812;28;20200;-68
2021/03/07 05:47:59;;;;;;;9.77;8.80;;;2.50;86.20;;;;;;5093432;28;20164;-68
2021/03/07 05:50:26;;;;;;;10.38;9.40;;;2.50;85.40;;;;;;5093331;28;20170;-68
2021/03/07 05:52:57;;;;;;;9.82;8.88;;;2.50;85.50;;;;;;5074386;28;20178;-68
2021/03/07 05:55:24;;;;;;;9.10;8.20;;;2.40;85.60;;;;;;5093246;28;20189;-68
2021/03/07 05:57:50;;;;;;;9.95;9.10;;;2.40;85.80;;;;;;5092654;28;20233;-68
2021/03/07 06:00:19;;;;;;;9.18;8.20;;;2.40;86.00;;;;;;5093130;28;20253;-68
2021/03/07 06:02:45;;;;;;;9.63;8.60;;;2.40;86.00;;;;;;5092529;28;20177;-68
2021/03/07 06:05:12;;;;;;;9.70;8.80;;;2.40;85.80;;;;;;5092963;28;20165;-68
2021/03/07 06:07:39;;;;;;;11.30;8.70;;;2.40;85.90;;;;;;5092502;28;20411;-68
2021/03/07 06:10:17;;;;;;;10.65;9.68;;;2.40;86.10;;;;;;5093308;28;20204;-68
2021/03/07 06:12:54;;;;;;;9.88;8.90;;;2.40;86.50;;;;;;5092449;28;20500;-68
2021/03/07 06:15:20;;;;;;;9.40;8.57;;;2.50;86.90;;;;;;5092565;28;20499;-68
2021/03/07 06:17:49;;;;;;;9.07;8.17;;;2.50;86.90;;;;;;5092286;28;20166;-68
2021/03/07 06:20:17;;;;;;;9.98;9.05;;;2.40;87.30;;;;;;5093242;28;20410;-68
2021/03/07 06:22:59;;;;;;;10.10;9.13;;;2.50;87.90;;;;;;5092528;28;20197;-68
2021/03/07 06:25:25;;;;;;;12.05;9.40;;;2.50;87.90;;;;;;5092929;28;20184;-68
2021/03/07 06:27:52;;;;;;;10.43;9.43;;;2.50;87.10;;;;;;5092019;28;20181;-70
2021/03/07 06:30:24;;;;;;;10.32;9.32;;;2.50;87.10;;;;;;5092723;28;20173;-68
2021/03/07 06:33:00;;;;;;;11.57;9.50;;;2.50;87.40;;;;;;5092155;28;20189;-68
2021/03/07 06:35:28;;;;;;;10.38;9.30;;;2.50;87.50;;;;;;5092537;28;20210;-68
2021/03/07 06:38:06;;;;;;;10.10;9.10;;;2.50;87.30;;;;;;5091886;28;20221;-68
2021/03/07 06:40:36;;;;;;;9.93;8.90;;;2.50;87.50;;;;;;5092489;28;20303;-68
2021/03/07 06:43:19;;;;;;;10.10;9.10;;;2.50;87.90;;;;;;5092649;28;20182;-68
2021/03/07 06:45:45;;;;;;;9.27;8.45;;;2.60;88.10;;;;;;5073798;28;20190;-68
2021/03/07 06:48:11;;;;;;;9.60;8.60;;;2.60;88.20;;;;;;5092550;28;20645;-68
2021/03/07 06:50:55;;;;;;;10.60;9.50;;;2.60;88.70;;;;;;5091597;28;20460;-68
2021/03/07 06:53:35;;;;;;;10.10;9.13;;;2.60;88.70;;;;;;5092488;28;20162;-68
2021/03/07 06:56:01;;;;;;;9.30;8.40;;;2.60;89.00;;;;;;5075107;28;20206;-68
2021/03/07 06:58:27;;;;;;;10.30;9.30;;;2.70;89.20;;;;;;5092372;28;20173;-68
2021/03/07 07:00:53;;;;;;;12.13;10.43;;;2.80;89.30;;;;;;5091884;28;20776;-68
2021/03/07 07:03:19;;;;;;;13.30;9.30;;;2.90;89.10;;;;;;5092447;28;20173;-68
2021/03/07 07:05:50;;;;;;;11.30;10.20;;;2.80;88.90;;;;;;5091498;28;20418;-69
2021/03/07 07:08:36;;;;;;;11.63;10.13;;;2.90;88.70;;;;;;5092457;28;20233;-68
2021/03/07 07:11:03;;;;;;;11.82;10.18;;;2.90;89.10;;;;;;5092355;28;20166;-68
2021/03/07 07:13:31;;;;;;;11.88;10.68;;;3.00;89.10;;;;;;5092131;28;20201;-68
2021/03/07 07:16:07;;;;;;;11.95;10.85;;;3.00;89.00;;;;;;5091621;28;20206;-68
2021/03/07 07:18:35;;;;;;;10.00;9.20;;;3.00;89.10;;;;;;5092387;28;20496;-68
2021/03/07 07:21:04;;;;;;;11.10;10.10;;;3.10;89.20;;;;;;5092221;28;20206;-68
2021/03/07 07:23:30;;;;;;;14.00;11.50;;;3.10;88.50;;;;;;5092079;28;20178;-68
2021/03/07 07:25:56;;;;;;;11.23;10.15;;;3.10;89.00;;;;;;5091571;28;20195;-68
2021/03/07 07:28:23;;;;;;;11.55;10.38;;;3.20;89.00;;;;;;5077542;28;20236;-68
2021/03/07 07:31:20;;;;;;;11.38;10.20;;;3.20;88.80;;;;;;5095452;28;20163;-68
2021/03/07 07:33:55;;;;;;;11.07;9.98;;;3.20;88.50;;;;;;5024022;28;20648;-68
2021/03/07 07:36:29;;;;;;;11.45;10.40;;;3.40;88.90;;;;;;5095884;28;20205;-68
2021/03/07 07:38:57;;;;;;;11.02;9.98;;;3.40;88.60;;;;;;5076847;28;20439;-68
2021/03/07 07:41:30;;;;;;;11.05;9.55;;;3.50;88.20;;;;;;5095706;28;20183;-68
2021/03/07 07:43:56;;;;;;;11.05;9.90;;;3.60;88.10;;;;;;5094893;28;20187;-68
2021/03/07 07:46:22;;;;;;;11.43;10.13;;;3.60;87.90;;;;;;5075408;28;20658;-68
2021/03/07 07:48:47;;;;;;;12.60;10.10;;;3.70;87.60;;;;;;5074797;28;20221;-68
2021/03/07 07:51:33;;;;;;;11.63;10.63;;;3.70;87.00;;;;;;5075307;28;20906;-68
2021/03/07 07:53:59;;;;;;;12.38;11.07;;;3.80;87.20;;;;;;5056767;28;20410;-68
2021/03/07 07:56:41;;;;;;;11.45;10.23;;;3.80;88.00;;;;;;5075039;28;20597;-68
2021/03/07 07:59:11;;;;;;;11.00;9.90;;;3.80;88.00;;;;;;5075120;28;20181;-68
2021/03/07 08:01:52;;;;;;;11.20;10.10;;;3.90;87.50;;;;;;5074644;28;20160;-68
2021/03/07 08:04:26;;;;;;;10.80;9.75;;;3.90;87.30;;;;;;5075087;28;20577;-68
2021/03/07 08:06:55;;;;;;;10.68;9.55;;;4.00;86.80;;;;;;5074041;28;20635;-68
2021/03/07 08:09:48;;;;;;;11.20;10.10;;;4.00;86.50;;;;;;5075196;28;20209;-68
2021/03/07 08:12:50;;;;;;;12.70;10.02;;;4.10;86.30;;;;;;5075110;28;20156;-68
2021/03/07 08:15:47;;;;;;;10.52;9.45;;;4.20;86.30;;;;;;5074481;28;20534;-68
2021/03/07 08:18:42;;;;;;;12.18;10.73;;;4.30;86.70;;;;;;5073334;28;20188;-68
2021/03/07 08:21:08;;;;;;;11.48;10.40;;;4.40;86.90;;;;;;5074705;28;20184;-68
2021/03/07 08:24:05;;;;;;;11.50;10.30;;;4.40;86.40;;;;;;5074437;28;20260;-68
2021/03/07 08:26:43;;;;;;;13.25;11.85;;;4.50;87.10;;;;;;5074743;28;20397;-68
2021/03/07 08:29:41;;;;;;;12.05;11.00;;;4.60;88.80;;;;;;5074330;28;20179;-68
2021/03/07 08:32:28;;;;;;;12.18;10.98;;;4.60;88.90;;;;;;5074540;28;20176;-68
2021/03/07 08:35:24;;;;;;;12.30;11.20;;;4.70;89.30;;;;;;5074044;28;20573;-68
2021/03/07 08:38:14;;;;;;;12.13;11.02;;;4.80;89.00;;;;;;5071753;28;20751;-68
2021/03/07 08:40:54;;;;;;;17.33;13.05;;;4.90;87.90;;;;;;5073481;28;20189;-68
2021/03/07 08:43:23;;;;;;;12.65;10.88;;;5.10;86.00;;;;;;5078114;28;20179;-68
2021/03/07 08:46:20;;;;;;;12.48;11.23;;;5.20;86.20;;;;;;5093930;28;20250;-68
2021/03/07 08:48:48;;;;;;;12.63;11.38;;;5.20;85.40;;;;;;5094034;28;20286;-68
2021/03/07 08:51:17;;;;;;;13.00;11.65;;;5.40;86.30;;;;;;5094439;28;20176;-70
2021/03/07 08:53:45;;;;;;;14.57;13.07;;;5.50;87.70;;;;;;5093996;28;20180;-68
2021/03/07 08:56:13;;;;;;;12.15;11.05;;;5.50;86.40;;;;;;5094325;28;20295;-68
2021/03/07 08:58:39;;;;;;;13.93;11.70;;;5.60;86.00;;;;;;5094082;28;20169;-68
2021/03/07 09:01:07;;;;;;;12.52;11.32;;;5.70;85.50;;;;;;5094299;28;20259;-68
2021/03/07 09:03:33;;;;;;;12.65;11.45;;;5.80;85.20;;;;;;5094156;28;20523;-67
2021/03/07 09:06:10;;;;;;;13.13;11.77;;;6.00;84.70;;;;;;5093625;28;20798;-68
2021/03/07 09:08:36;;;;;;;13.18;12.07;;;6.00;84.90;;;;;;5094239;28;20160;-68
2021/03/07 09:11:03;;;;;;;13.30;11.90;;;6.10;84.70;;;;;;5093607;28;20173;-70
2021/03/07 09:13:30;;;;;;;13.52;12.23;;;6.20;84.20;;;;;;5093839;28;20233;-70
2021/03/07 09:15:55;;;;;;;14.68;13.18;;;6.30;84.90;;;;;;5093310;28;20667;-70
2021/03/07 09:18:27;;;;;;;12.63;11.40;;;6.40;85.50;;;;;;5093985;28;20249;-68
2021/03/07 09:20:55;;;;;;;13.40;11.93;;;6.50;84.60;;;;;;5093284;28;20157;-68
2021/03/07 09:23:31;;;;;;;13.83;12.43;;;6.60;86.30;;;;;;5093602;28;20402;-68
2021/03/07 09:25:59;;;;;;;13.57;12.30;;;6.70;86.30;;;;;;5092981;28;20411;-68
2021/03/07 09:28:33;;;;;;;13.43;12.13;;;6.80;84.60;;;;;;5093811;28;20550;-68
2021/03/07 09:31:01;;;;;;;13.50;12.03;;;6.90;83.70;;;;;;5093201;28;20483;-70
2021/03/07 09:33:27;;;;;;;14.13;12.80;;;7.00;83.30;;;;;;5093577;28;20450;-68
2021/03/07 09:36:01;;;;;;;13.77;12.60;;;7.20;84.10;;;;;;5093171;28;20425;-68
2021/03/07 09:38:48;;;;;;;14.57;13.17;;;7.50;84.80;;;;;;5093306;28;20454;-68
2021/03/07 09:41:30;;;;;;;14.63;13.30;;;7.70;84.70;;;;;;5093426;28;20375;-68
2021/03/07 09:43:59;;;;;;;13.27;12.07;;;8.10;84.90;;;;;;5092523;28;20412;-68
2021/03/07 09:46:26;;;;;;;12.43;11.33;;;8.50;83.90;;;;;;5093502;28;20414;-68
2021/03/07 09:48:59;;;;;;;12.50;11.03;;;9.00;82.00;;;;;;5092323;28;20479;-68
2021/03/07 09:51:31;;;;;;;10.80;9.83;;;9.20;80.40;;;;;;5092819;28;20831;-68
2021/03/07 09:53:58;;;;;;;9.80;9.00;;;9.50;78.00;;;;;;5092566;28;20418;-68
2021/03/07 09:56:26;;;;;;;10.30;9.47;;;9.80;76.40;;;;;;5093153;28;20453;-68
2021/03/07 09:58:53;;;;;;;10.63;9.63;;;10.20;72.80;;;;;;5092404;28;20414;-68
2021/03/07 10:01:19;;;;;;;12.93;11.00;;;10.60;72.80;;;;;;5093349;28;20407;-68
2021/03/07 10:03:44;;;;;;;9.47;8.20;;;10.90;73.50;;;;;;5092031;28;20400;-68
2021/03/07 10:06:11;;;;;;;9.50;8.63;;;11.20;70.50;;;;;;5072905;28;20408;-68
2021/03/07 10:08:39;;;;;;;9.60;8.70;;;11.50;67.10;;;;;;5072831;28;20179;-68
2021/03/07 10:11:12;;;;;;;9.90;9.03;;;11.30;63.50;;;;;;5072143;28;20943;-68
2021/03/07 10:13:40;;;;;;;9.27;8.47;;;11.20;64.60;;;;;;5078926;28;20756;-68
2021/03/07 10:16:08;;;;;;;8.30;7.60;;;10.60;63.20;;;;;;5092312;28;20465;-68
2021/03/07 10:18:34;;;;;;;8.53;7.73;;;10.50;65.90;;;;;;5093210;28;20421;-68
2021/03/07 10:21:00;;;;;;;8.47;7.77;;;10.50;63.80;;;;;;5091925;28;20463;-68
2021/03/07 10:23:33;;;;;;;8.80;8.10;;;10.60;64.40;;;;;;5092665;28;20445;-68
2021/03/07 10:26:00;;;;;;;8.77;7.90;;;10.90;64.20;;;;;;5092040;28;20794;-68
2021/03/07 10:28:30;;;;;;;8.13;7.43;;;10.80;63.90;;;;;;5092405;28;20403;-68
2021/03/07 10:31:13;;;;;;;9.67;8.60;;;10.90;65.40;;;;;;5092018;28;20410;-69
2021/03/07 10:33:40;;;;;;;9.27;8.40;;;11.00;63.40;;;;;;5074865;28;20414;-68
2021/03/07 10:36:23;;;;;;;7.43;6.83;;;11.30;64.80;;;;;;5079270;28;20461;-68
2021/03/07 10:39:10;;;;;;;7.70;7.07;;;11.80;61.80;;;;;;5079531;28;20444;-68
2021/03/07 10:41:36;;;;;;;6.73;6.20;;;12.10;59.10;;;;;;5080302;28;20438;-68
2021/03/07 10:44:06;;;;;;;7.97;7.27;;;12.10;59.50;;;;;;5074913;28;20506;-68
2021/03/07 10:46:33;;;;;;;7.10;6.50;;;12.50;60.10;;;;;;5072099;28;20415;-68
2021/03/07 10:49:04;;;;;;;6.83;6.23;;;12.50;59.30;;;;;;5071283;28;20423;-68
2021/03/07 10:51:30;;;;;;;7.23;6.63;;;12.50;59.70;;;;;;5072130;28;20404;-69
2021/03/07 10:53:56;;;;;;;7.87;7.27;;;12.40;59.60;;;;;;5071546;28;20411;-68
2021/03/07 10:56:33;;;;;;;8.40;7.60;;;11.80;58.90;;;;;;5072463;28;20955;-68
2021/03/07 10:59:00;;;;;;;7.63;6.93;;;11.30;59.70;;;;;;5071733;28;20408;-68
2021/03/07 11:01:26;;;;;;;7.30;6.70;;;11.30;60.80;;;;;;5073639;28;20906;-68
2021/03/07 11:03:52;;;;;;;7.73;7.13;;;11.00;62.40;;;;;;5092664;28;20415;-68
2021/03/07 11:06:19;;;;;;;7.77;7.10;;;10.70;61.80;;;;;;5096414;28;20164;-68
2021/03/07 11:08:46;;;;;;;8.10;7.30;;;10.70;61.70;;;;;;5095863;28;20184;-68
2021/03/07 11:11:12;;;;;;;6.77;6.17;;;10.40;62.60;;;;;;5096069;28;20407;-68
2021/03/07 11:13:38;;;;;;;7.00;6.30;;;10.30;63.60;;;;;;5096372;28;20472;-68
2021/03/07 11:16:04;;;;;;;6.83;6.33;;;10.40;62.50;;;;;;5095481;28;20285;-68
2021/03/07 11:18:30;;;;;;;8.23;7.53;;;10.30;62.60;;;;;;5096293;28;20172;-68
2021/03/07 11:20:56;;;;;;;9.10;7.63;;;9.90;62.70;;;;;;5095463;28;20394;-68
2021/03/07 11:23:22;;;;;;;10.40;9.50;;;9.70;64.10;;;;;;5096106;28;20448;-68
2021/03/07 11:25:48;;;;;;;10.20;9.30;;;9.60;64.60;;;;;;5095497;28;20523;-68
2021/03/07 11:28:14;;;;;;;10.70;9.73;;;9.50;63.30;;;;;;5095946;28;20410;-68
2021/03/07 11:30:39;;;;;;;10.00;9.10;;;9.20;63.80;;;;;;5096079;28;20743;-68
2021/03/07 11:33:05;;;;;;;10.80;9.70;;;9.30;64.90;;;;;;5095204;28;20980;-68
2021/03/07 11:35:32;;;;;;;11.50;10.40;;;9.40;65.30;;;;;;5095731;28;20574;-68
2021/03/07 11:37:58;;;;;;;12.33;11.03;;;9.80;67.00;;;;;;5095477;28;20447;-68
2021/03/07 11:40:25;;;;;;;9.33;8.40;;;10.40;68.10;;;;;;5077836;28;20413;-68
2021/03/07 11:42:51;;;;;;;9.77;8.97;;;11.00;66.30;;;;;;5095180;28;20398;-68
2021/03/07 11:45:17;;;;;;;10.20;9.27;;;11.50;59.50;;;;;;5095816;28;20406;-68
2021/03/07 11:47:43;;;;;;;9.07;8.37;;;12.00;61.90;;;;;;5095731;28;20451;-68
2021/03/07 11:50:09;;;;;;;9.93;9.13;;;12.20;58.30;;;;;;5094978;28;20207;-68
2021/03/07 11:52:35;;;;;;;11.73;10.73;;;12.30;57.60;;;;;;5095503;28;20433;-69
2021/03/07 11:55:01;;;;;;;11.57;10.67;;;12.40;56.30;;;;;;5094980;28;20459;-69
2021/03/07 11:57:27;;;;;;;12.77;11.57;;;11.70;56.00;;;;;;5095139;28;20848;-69
2021/03/07 11:59:53;;;;;;;12.00;11.10;;;11.30;56.70;;;;;;5094821;28;20398;-69
2021/03/07 12:02:19;;;;;;;10.70;9.80;;;11.30;57.10;;;;;;5095344;28;20232;-69
2021/03/07 12:04:45;;;;;;;11.33;10.43;;;11.20;58.00;;;;;;5081160;28;20415;-68
2021/03/07 12:07:10;;;;;;;13.53;12.33;;;11.20;57.80;;;;;;5074308;28;20397;-69
2021/03/07 12:09:36;;;;;;;12.20;11.20;;;11.20;57.20;;;;;;5074952;28;20214;-68
2021/03/07 12:12:02;;;;;;;14.27;13.03;;;10.70;58.00;;;;;;5073696;28;20599;-69
2021/03/07 12:14:28;;;;;;;13.33;12.23;;;10.40;58.20;;;;;;5074200;28;20637;-68
2021/03/07 12:16:54;;;;;;;13.23;12.13;;;10.00;59.40;;;;;;5073946;28;20455;-68
2021/03/07 12:19:21;;;;;;;13.07;11.97;;;9.90;62.90;;;;;;5056743;28;20176;-70
2021/03/07 12:21:47;;;;;;;14.57;13.17;;;9.90;62.70;;;;;;5074852;28;20436;-71
2021/03/07 12:24:13;;;;;;;12.57;11.57;;;10.20;63.30;;;;;;5073913;28;20443;-69
2021/03/07 12:26:38;;;;;;;12.30;11.10;;;10.70;63.90;;;;;;5074747;28;20930;-69
2021/03/07 12:29:05;;;;;;;12.27;11.27;;;10.90;60.90;;;;;;5074232;28;20654;-70
2021/03/07 12:31:31;;;;;;;12.60;11.60;;;11.20;59.00;;;;;;5074284;28;20459;-70
2021/03/07 12:33:56;;;;;;;11.70;10.70;;;11.30;56.90;;;;;;5090252;28;20494;-70
2021/03/07 12:36:22;;;;;;;13.43;12.07;;;11.10;57.40;;;;;;5094382;28;20463;-71
2021/03/07 12:38:48;;;;;;;12.60;11.50;;;11.00;57.00;;;;;;5074898;28;20220;-70
2021/03/07 12:41:13;;;;;;;13.23;12.03;;;11.10;56.80;;;;;;5072225;28;20177;-72
2021/03/07 12:43:39;;;;;;;14.53;13.00;;;11.20;56.90;;;;;;5073993;28;20518;-69
2021/03/07 12:46:05;;;;;;;14.13;12.93;;;11.40;58.30;;;;;;5072987;28;20250;-69
2021/03/07 12:48:31;;;;;;;13.33;12.13;;;11.60;57.20;;;;;;5074274;28;20172;-69
2021/03/07 12:50:56;;;;;;;13.03;12.00;;;11.70;56.60;;;;;;5073994;28;20638;-69